Time;durP1;ratioP1;P1;durP2;ratioP2;P2;SDS_P1;SDS_P2;PMS_P1;PMS_P2;Temp;Humidity;BMP_temperature;BMP_pressure;BME280_temperature;BME280_humidity;BME280_pressure;Samples;Min_cycle;Max_cycle;Signal;HPM_P1;HPM_P2
2023/04/28 00:01:49;;;;;;;2.17;1.75;;;;;;;;;;5075769;28;20024;-65
2023/04/28 00:04:14;;;;;;;2.35;1.80;;;;;;;;;;5075488;28;20460;-65
2023/04/28 00:06:40;;;;;;;1.95;1.75;;;;;;;;;;5075323;28;20025;-65
2023/04/28 00:09:09;;;;;;;2.08;1.88;;;;;;;;;;5075671;28;20376;-65
2023/04/28 00:11:37;;;;;;;1.92;1.77;;;;;;;;;;5075222;28;20028;-65
2023/04/28 00:14:03;;;;;;;2.80;2.03;;;;;;;;;;5075548;28;20065;-65
2023/04/28 00:16:28;;;;;;;2.13;1.70;;;;;;;;;;5075213;28;20032;-64
2023/04/28 00:18:54;;;;;;;3.03;2.03;;;;;;;;;;5075460;28;20025;-65
2023/04/28 00:21:19;;;;;;;1.80;1.70;;;;;;;;;;5075460;28;20377;-65
2023/04/28 00:23:45;;;;;;;2.00;1.90;;;;;;;;;;5075144;28;20118;-65
2023/04/28 00:26:11;;;;;;;2.25;1.95;;;;;;;;;;5074857;28;20035;-65
2023/04/28 00:28:36;;;;;;;3.53;2.28;;;;;;;;;;5075007;28;20033;-65
2023/04/28 00:31:12;;;;;;;2.92;2.20;;;;;;;;;;5074942;28;20029;-65
2023/04/28 00:33:42;;;;;;;3.15;1.75;;;;;;;;;;5074937;28;20017;-65
2023/04/28 00:36:08;;;;;;;3.00;2.00;;;;;;;;;;5074763;28;20111;-64
2023/04/28 00:38:34;;;;;;;2.45;2.10;;;;;;;;;;5075100;28;20107;-64
2023/04/28 00:41:00;;;;;;;2.95;1.92;;;;;;;;;;5074792;28;20564;-65
2023/04/28 00:43:25;;;;;;;2.45;1.80;;;;;;;;;;5075008;28;20028;-65
2023/04/28 00:45:52;;;;;;;1.85;1.60;;;;;;;;;;5074869;28;20028;-64
2023/04/28 00:48:18;;;;;;;2.40;1.70;;;;;;;;;;5074725;28;20054;-65
2023/04/28 00:50:44;;;;;;;3.40;2.10;;;;;;;;;;5074664;28;20031;-65
2023/04/28 00:53:11;;;;;;;2.20;1.70;;;;;;;;;;5074531;28;20031;-65
2023/04/28 00:55:37;;;;;;;2.25;2.00;;;;;;;;;;5056526;28;20411;-65
2023/04/28 00:58:04;;;;;;;2.25;2.05;;;;;;;;;;5074294;28;20075;-65
2023/04/28 01:00:30;;;;;;;2.10;1.90;;;;;;;;;;5073493;28;20056;-65
2023/04/28 01:02:56;;;;;;;2.67;1.73;;;;;;;;;;5074562;28;20420;-65
2023/04/28 01:05:25;;;;;;;2.00;1.80;;;;;;;;;;5074169;28;20103;-65
2023/04/28 01:07:51;;;;;;;2.85;1.73;;;;;;;;;;5074575;28;20434;-65
2023/04/28 01:10:16;;;;;;;1.77;1.67;;;;;;;;;;5074115;28;20025;-65
2023/04/28 03:10:24;;;;;;;2.65;2.00;;;;;;;;;;5059239;28;20121;-65
2023/04/28 03:12:50;;;;;;;2.25;2.00;;;;;;;;;;5072597;28;20540;-64
2023/04/28 03:15:15;;;;;;;2.65;1.90;;;;;;;;;;5072280;28;20047;-65
2023/04/28 03:17:42;;;;;;;2.72;1.83;;;;;;;;;;5072291;28;20388;-65
2023/04/28 03:20:09;;;;;;;2.13;1.92;;;;;;;;;;5072154;28;20105;-65
2023/04/28 03:22:35;;;;;;;2.50;1.90;;;;;;;;;;5072367;28;20033;-65
2023/04/28 03:25:01;;;;;;;1.67;1.58;;;;;;;;;;5074671;28;20028;-65
2023/04/28 03:27:27;;;;;;;2.13;1.92;;;;;;;;;;5076206;28;20028;-64
2023/04/28 03:29:52;;;;;;;1.88;1.77;;;;;;;;;;5076257;28;20025;-65
2023/04/28 03:32:18;;;;;;;2.10;1.90;;;;;;;;;;5076199;28;20349;-64
2023/04/28 03:34:43;;;;;;;3.60;1.83;;;;;;;;;;5076010;28;20048;-65
2023/04/28 03:37:09;;;;;;;2.10;1.83;;;;;;;;;;5075981;28;20031;-64
2023/04/28 03:39:35;;;;;;;1.98;1.88;;;;;;;;;;5076230;28;20031;-64
2023/04/28 03:42:01;;;;;;;2.17;1.75;;;;;;;;;;5076026;28;20070;-64
2023/04/28 03:44:26;;;;;;;3.33;2.00;;;;;;;;;;5075827;28;20024;-64
2023/04/28 03:46:52;;;;;;;2.60;1.90;;;;;;;;;;5075994;28;20035;-64
2023/04/28 03:49:17;;;;;;;2.90;1.98;;;;;;;;;;5075738;28;20021;-64
2023/04/28 03:51:43;;;;;;;2.08;1.88;;;;;;;;;;5075712;28;20035;-65
2023/04/28 03:54:08;;;;;;;2.28;1.83;;;;;;;;;;5075937;28;20020;-65
2023/04/28 03:56:34;;;;;;;2.15;1.80;;;;;;;;;;5075611;28;20697;-64
2023/04/28 03:59:00;;;;;;;2.15;1.90;;;;;;;;;;5075820;28;20027;-65
2023/04/28 04:01:25;;;;;;;2.20;2.00;;;;;;;;;;5075842;28;20469;-64
2023/04/28 04:03:51;;;;;;;1.77;1.67;;;;;;;;;;5075772;28;20017;-64
2023/04/28 04:06:17;;;;;;;2.72;1.90;;;;;;;;;;5075352;28;20035;-64
2023/04/28 04:08:43;;;;;;;1.77;1.67;;;;;;;;;;5075285;28;20024;-64
2023/04/28 04:11:08;;;;;;;1.98;1.67;;;;;;;;;;5075121;28;20045;-64
2023/04/28 04:13:34;;;;;;;1.60;1.50;;;;;;;;;;5075211;28;20055;-64
2023/04/28 04:16:00;;;;;;;2.42;2.20;;;;;;;;;;5075361;28;20025;-64
2023/04/28 04:18:26;;;;;;;1.95;1.70;;;;;;;;;;5075362;28;20032;-63
2023/04/28 04:20:54;;;;;;;1.80;1.65;;;;;;;;;;5075104;28;20024;-64
2023/04/28 04:23:20;;;;;;;2.10;1.90;;;;;;;;;;5074931;28;20516;-64
2023/04/28 04:25:46;;;;;;;2.03;1.83;;;;;;;;;;5074991;28;20024;-64
2023/04/28 04:28:11;;;;;;;4.13;2.03;;;;;;;;;;5075206;28;20028;-63
2023/04/28 04:30:37;;;;;;;3.10;1.90;;;;;;;;;;5075139;28;20392;-63
2023/04/28 04:33:02;;;;;;;1.83;1.63;;;;;;;;;;5074932;28;20025;-62
2023/04/28 04:35:28;;;;;;;2.45;1.98;;;;;;;;;;5074593;28;20025;-63
2023/04/28 04:37:53;;;;;;;3.65;2.10;;;;;;;;;;5074958;28;20103;-62
2023/04/28 04:40:19;;;;;;;1.92;1.70;;;;;;;;;;5075107;28;20071;-63
2023/04/28 04:42:44;;;;;;;2.22;1.80;;;;;;;;;;5057131;28;20020;-63
2023/04/28 04:45:10;;;;;;;1.95;1.77;;;;;;;;;;5074708;28;20023;-63
2023/04/28 04:47:36;;;;;;;2.65;2.10;;;;;;;;;;5074809;28;20039;-64
2023/04/28 04:50:02;;;;;;;2.08;1.88;;;;;;;;;;5074811;28;20392;-64
2023/04/28 04:52:28;;;;;;;1.80;1.70;;;;;;;;;;5074494;28;20024;-62
2023/04/28 04:54:55;;;;;;;2.10;1.90;;;;;;;;;;5074740;28;20086;-63
2023/04/28 04:57:20;;;;;;;1.90;1.70;;;;;;;;;;5074804;28;20108;-63
2023/04/28 04:59:46;;;;;;;1.90;1.77;;;;;;;;;;5074390;28;20107;-63
2023/04/28 05:02:11;;;;;;;1.73;1.60;;;;;;;;;;5074435;28;20030;-64
2023/04/28 05:04:37;;;;;;;1.90;1.77;;;;;;;;;;5074567;28;20027;-64
2023/04/28 05:07:03;;;;;;;2.92;1.90;;;;;;;;;;5056186;28;20044;-64
2023/04/28 05:09:29;;;;;;;1.70;1.60;;;;;;;;;;5074452;28;20099;-62
2023/04/28 05:11:55;;;;;;;4.13;1.80;;;;;;;;;;5074158;28;20024;-62
2023/04/28 05:14:21;;;;;;;2.22;2.03;;;;;;;;;;5074135;28;20503;-63
2023/04/28 05:16:46;;;;;;;2.38;1.90;;;;;;;;;;5074470;28;20032;-64
2023/04/28 05:19:12;;;;;;;2.28;2.08;;;;;;;;;;5074124;28;20384;-63
2023/04/28 05:21:37;;;;;;;2.22;2.03;;;;;;;;;;5074216;28;20024;-65
2023/04/28 05:24:03;;;;;;;3.70;2.20;;;;;;;;;;5074157;28;20532;-63
2023/04/28 05:26:29;;;;;;;2.28;2.08;;;;;;;;;;5073952;28;20028;-65
2023/04/28 05:28:54;;;;;;;2.75;2.00;;;;;;;;;;5073999;28;20033;-63
2023/04/28 05:31:20;;;;;;;3.67;2.17;;;;;;;;;;5073913;28;20025;-64
2023/04/28 05:33:45;;;;;;;2.38;2.10;;;;;;;;;;5073824;28;20070;-63
2023/04/28 05:36:11;;;;;;;2.22;1.92;;;;;;;;;;5073640;28;20445;-63
2023/04/28 05:38:37;;;;;;;2.13;1.90;;;;;;;;;;5073698;28;20021;-64
2023/04/28 05:41:03;;;;;;;1.92;1.80;;;;;;;;;;5073475;28;20043;-63
2023/04/28 05:43:28;;;;;;;2.38;2.08;;;;;;;;;;5073652;28;20040;-62
2023/04/28 05:45:54;;;;;;;2.65;1.92;;;;;;;;;;5073345;28;20028;-62
2023/04/28 05:48:20;;;;;;;1.88;1.77;;;;;;;;;;5072997;28;20039;-63
2023/04/28 05:50:45;;;;;;;2.17;1.98;;;;;;;;;;5073254;28;20020;-64
2023/04/28 05:53:11;;;;;;;2.15;1.95;;;;;;;;;;5073470;28;20025;-64
2023/04/28 05:55:36;;;;;;;2.22;2.03;;;;;;;;;;5073613;28;20195;-65
2023/04/28 05:58:02;;;;;;;2.28;2.08;;;;;;;;;;5073281;28;20124;-63
2023/04/28 06:00:28;;;;;;;2.60;2.08;;;;;;;;;;5073596;28;20654;-64
2023/04/28 06:02:54;;;;;;;2.35;2.00;;;;;;;;;;5073698;28;20051;-63
2023/04/28 06:05:20;;;;;;;2.45;1.90;;;;;;;;;;5073152;28;20048;-62
2023/04/28 06:07:46;;;;;;;2.90;1.90;;;;;;;;;;5073519;28;20024;-65
2023/04/28 06:10:11;;;;;;;1.90;1.80;;;;;;;;;;5072914;28;20116;-64
2023/04/28 06:12:37;;;;;;;2.67;2.10;;;;;;;;;;5073363;28;20048;-64
2023/04/28 06:15:04;;;;;;;2.03;1.92;;;;;;;;;;5055051;28;20400;-64
2023/04/28 06:17:31;;;;;;;3.63;2.20;;;;;;;;;;5055036;28;20383;-63
2023/04/28 06:19:58;;;;;;;1.90;1.80;;;;;;;;;;5073025;28;20024;-63
2023/04/28 06:22:24;;;;;;;1.90;1.80;;;;;;;;;;5072829;28;20062;-63
2023/04/28 06:24:50;;;;;;;2.72;2.15;;;;;;;;;;5054830;28;20032;-63
2023/04/28 06:27:16;;;;;;;2.58;2.05;;;;;;;;;;5072657;28;20415;-64
2023/04/28 06:29:41;;;;;;;2.13;1.92;;;;;;;;;;5072478;28;20081;-63
2023/04/28 06:32:07;;;;;;;2.10;1.88;;;;;;;;;;5072614;28;20086;-64
2023/04/28 06:34:33;;;;;;;3.53;2.00;;;;;;;;;;5072443;28;20031;-64
2023/04/28 06:36:59;;;;;;;2.33;2.13;;;;;;;;;;5072807;28;20113;-63
2023/04/28 06:39:25;;;;;;;2.22;2.03;;;;;;;;;;5072938;28;20492;-64
2023/04/28 06:41:50;;;;;;;2.10;1.88;;;;;;;;;;5072544;28;20074;-65
2023/04/28 06:44:16;;;;;;;3.28;2.05;;;;;;;;;;5072574;28;20099;-64
2023/04/28 06:46:42;;;;;;;2.40;2.00;;;;;;;;;;5072702;28;20028;-65
2023/04/28 06:49:07;;;;;;;4.00;2.20;;;;;;;;;;5072356;28;20032;-65
2023/04/28 06:51:33;;;;;;;1.95;1.85;;;;;;;;;;5072742;28;20040;-65
2023/04/28 06:53:59;;;;;;;3.00;1.80;;;;;;;;;;5054461;28;20495;-64
2023/04/28 06:56:25;;;;;;;1.98;1.73;;;;;;;;;;5072288;28;20020;-64
2023/04/28 06:58:50;;;;;;;3.63;2.30;;;;;;;;;;5072338;28;20039;-65
2023/04/28 07:01:16;;;;;;;2.13;1.92;;;;;;;;;;5072432;28;20029;-63
2023/04/28 07:03:42;;;;;;;2.55;2.00;;;;;;;;;;5054370;28;20020;-65
2023/04/28 07:06:07;;;;;;;2.10;1.90;;;;;;;;;;5048678;28;20031;-64
2023/04/28 07:08:35;;;;;;;3.05;2.00;;;;;;;;;;5040108;28;20058;-64
2023/04/28 07:11:05;;;;;;;3.05;2.05;;;;;;;;;;5058136;28;20045;-65
2023/04/28 07:13:31;;;;;;;2.13;1.90;;;;;;;;;;5057876;28;20035;-63
2023/04/28 07:15:56;;;;;;;2.20;2.00;;;;;;;;;;5042684;28;20028;-63
2023/04/28 07:18:22;;;;;;;2.20;1.90;;;;;;;;;;5058114;28;20639;-65
2023/04/28 07:20:48;;;;;;;2.10;1.90;;;;;;;;;;5059390;28;20028;-65
2023/04/28 07:23:13;;;;;;;2.20;1.98;;;;;;;;;;5058432;28;20035;-64
2023/04/28 07:25:40;;;;;;;2.85;2.10;;;;;;;;;;5058571;28;20073;-65
2023/04/28 07:28:06;;;;;;;2.15;1.88;;;;;;;;;;5060068;28;20063;-64
2023/04/28 07:30:32;;;;;;;2.13;1.92;;;;;;;;;;5057988;28;20441;-64
2023/04/28 07:32:58;;;;;;;2.17;2.00;;;;;;;;;;5060287;28;20138;-65
2023/04/28 07:35:24;;;;;;;2.10;1.80;;;;;;;;;;5059303;28;20118;-64
2023/04/28 07:37:50;;;;;;;2.28;2.08;;;;;;;;;;5063148;28;20029;-64
2023/04/28 07:40:16;;;;;;;2.25;1.90;;;;;;;;;;5070682;28;20490;-63
2023/04/28 07:42:41;;;;;;;1.80;1.70;;;;;;;;;;5062805;28;20373;-64
2023/04/28 07:45:07;;;;;;;2.70;2.00;;;;;;;;;;5062300;28;20020;-64
2023/04/28 07:47:33;;;;;;;2.75;1.90;;;;;;;;;;5053174;28;20067;-63
2023/04/28 07:50:03;;;;;;;2.28;2.00;;;;;;;;;;5048424;28;20127;-64
2023/04/28 07:52:29;;;;;;;2.65;2.00;;;;;;;;;;5051312;28;20028;-65
2023/04/28 07:54:55;;;;;;;1.95;1.80;;;;;;;;;;5050231;28;20072;-65
2023/04/28 07:57:20;;;;;;;2.17;1.98;;;;;;;;;;5050027;28;20063;-66
2023/04/28 07:59:46;;;;;;;2.05;1.80;;;;;;;;;;5050003;28;20036;-65
2023/04/28 08:02:13;;;;;;;2.17;1.98;;;;;;;;;;5050052;28;20036;-65
2023/04/28 08:04:38;;;;;;;2.15;1.90;;;;;;;;;;5050116;28;20111;-65
2023/04/28 08:07:04;;;;;;;2.25;2.05;;;;;;;;;;5050592;28;20108;-66
2023/04/28 08:09:29;;;;;;;2.47;2.10;;;;;;;;;;5050074;28;20040;-66
2023/04/28 08:11:55;;;;;;;2.28;1.80;;;;;;;;;;5054182;28;20033;-65
2023/04/28 08:14:21;;;;;;;1.70;1.60;;;;;;;;;;5054332;28;20471;-65
2023/04/28 08:16:47;;;;;;;2.53;1.95;;;;;;;;;;5064218;28;20024;-64
2023/04/28 08:19:13;;;;;;;1.75;1.63;;;;;;;;;;5073771;28;20434;-64
2023/04/28 08:21:38;;;;;;;2.00;1.70;;;;;;;;;;5073540;28;20392;-65
2023/04/28 08:24:04;;;;;;;4.32;2.00;;;;;;;;;;5073812;28;20020;-65
2023/04/28 08:26:30;;;;;;;1.80;1.70;;;;;;;;;;5073833;28;20067;-65
2023/04/28 08:28:55;;;;;;;3.53;1.63;;;;;;;;;;5073419;28;20056;-64
2023/04/28 08:31:21;;;;;;;2.15;1.80;;;;;;;;;;5068473;28;20094;-65
2023/04/28 08:33:49;;;;;;;2.10;1.90;;;;;;;;;;5063904;28;20040;-66
2023/04/28 08:36:16;;;;;;;1.92;1.73;;;;;;;;;;5054553;28;20068;-64
2023/04/28 08:38:43;;;;;;;2.95;1.83;;;;;;;;;;5066192;28;20525;-63
2023/04/28 08:41:14;;;;;;;1.70;1.60;;;;;;;;;;5073110;28;20044;-62
2023/04/28 08:43:41;;;;;;;4.25;1.80;;;;;;;;;;5073433;28;20387;-64
2023/04/28 08:46:07;;;;;;;2.22;1.73;;;;;;;;;;5072906;28;20029;-64
2023/04/28 08:48:42;;;;;;;1.60;1.50;;;;;;;;;;5073289;28;20147;-65
2023/04/28 08:51:08;;;;;;;2.70;1.88;;;;;;;;;;5071832;28;20017;-65
2023/04/28 08:53:38;;;;;;;2.05;1.50;;;;;;;;;;5053798;28;20039;-66
2023/04/28 08:56:12;;;;;;;4.80;2.33;;;;;;;;;;5073226;28;20418;-64
2023/04/28 08:58:39;;;;;;;1.98;1.85;;;;;;;;;;5073264;28;20051;-64
2023/04/28 09:01:04;;;;;;;2.35;1.83;;;;;;;;;;5072726;28;20024;-64
2023/04/28 09:03:34;;;;;;;2.10;1.90;;;;;;;;;;5073061;28;20032;-66
2023/04/28 09:06:00;;;;;;;4.37;2.00;;;;;;;;;;5067004;28;20571;-65
2023/04/28 09:08:26;;;;;;;2.75;1.88;;;;;;;;;;5052594;28;20047;-64
2023/04/28 09:11:24;;;;;;;1.80;1.70;;;;;;;;;;5051765;28;20044;-64
2023/04/28 09:13:50;;;;;;;2.17;1.77;;;;;;;;;;5028196;28;20053;-64
2023/04/28 09:16:15;;;;;;;2.10;1.60;;;;;;;;;;5052032;28;20033;-64
2023/04/28 09:18:55;;;;;;;3.90;1.50;;;;;;;;;;5052507;28;20028;-65
2023/04/28 09:21:21;;;;;;;3.10;1.90;;;;;;;;;;5051352;28;20497;-64
2023/04/28 09:23:48;;;;;;;3.28;1.73;;;;;;;;;;5034238;28;20115;-65
2023/04/28 09:26:13;;;;;;;1.85;1.70;;;;;;;;;;5052498;28;20040;-64
2023/04/28 09:28:39;;;;;;;1.65;1.50;;;;;;;;;;5052154;28;20025;-64
2023/04/28 09:31:05;;;;;;;3.08;1.65;;;;;;;;;;5052331;28;20112;-64
2023/04/28 09:33:30;;;;;;;1.83;1.65;;;;;;;;;;5052378;28;20040;-64
2023/04/28 09:35:56;;;;;;;1.58;1.42;;;;;;;;;;5052422;28;20526;-64
2023/04/28 09:38:22;;;;;;;3.30;1.77;;;;;;;;;;5052066;28;20054;-64
2023/04/28 09:40:58;;;;;;;3.17;1.60;;;;;;;;;;5052024;28;20389;-64
2023/04/28 09:43:32;;;;;;;2.50;1.75;;;;;;;;;;5051838;28;20131;-64
2023/04/28 09:45:59;;;;;;;1.92;1.75;;;;;;;;;;5052039;28;20065;-64
2023/04/28 09:48:36;;;;;;;1.83;1.70;;;;;;;;;;5051823;28;20416;-64
2023/04/28 09:51:06;;;;;;;3.00;1.70;;;;;;;;;;5051963;28;20070;-64
2023/04/28 09:53:33;;;;;;;2.13;1.60;;;;;;;;;;5052267;28;20033;-64
2023/04/28 09:56:01;;;;;;;1.70;1.60;;;;;;;;;;5051793;28;20067;-66
2023/04/28 09:58:27;;;;;;;1.90;1.75;;;;;;;;;;5051921;28;20060;-65
2023/04/28 10:00:56;;;;;;;2.08;1.50;;;;;;;;;;5051698;28;20258;-65
2023/04/28 10:03:25;;;;;;;1.70;1.60;;;;;;;;;;5051686;28;20502;-64
2023/04/28 10:05:52;;;;;;;1.98;1.50;;;;;;;;;;5051781;28;20469;-66
2023/04/28 10:08:22;;;;;;;2.05;1.60;;;;;;;;;;5033771;28;20056;-65
2023/04/28 10:10:49;;;;;;;2.35;1.70;;;;;;;;;;5051030;28;20045;-65
2023/04/28 10:13:18;;;;;;;1.73;1.60;;;;;;;;;;5051506;28;20082;-66
2023/04/28 10:15:45;;;;;;;1.60;1.50;;;;;;;;;;5051590;28;20037;-63
2023/04/28 10:18:14;;;;;;;1.77;1.60;;;;;;;;;;5051516;28;20025;-65
2023/04/28 10:20:46;;;;;;;1.80;1.67;;;;;;;;;;5051090;28;20031;-65
2023/04/28 10:23:26;;;;;;;1.70;1.60;;;;;;;;;;5051483;28;20441;-65
2023/04/28 10:25:57;;;;;;;2.22;1.80;;;;;;;;;;5051422;28;20492;-66
2023/04/28 10:28:23;;;;;;;2.38;1.80;;;;;;;;;;5051502;28;20413;-63
2023/04/28 10:31:23;;;;;;;1.83;1.70;;;;;;;;;;5051095;28;20035;-63
2023/04/28 10:33:49;;;;;;;2.22;1.70;;;;;;;;;;5008585;28;20041;-61
2023/04/28 10:36:48;;;;;;;5.85;1.70;;;;;;;;;;5042275;28;20040;-66
2023/04/28 10:39:14;;;;;;;4.95;1.75;;;;;;;;;;5051247;28;20504;-66
2023/04/28 10:41:40;;;;;;;6.53;1.58;;;;;;;;;;5050765;28;20477;-65
2023/04/28 10:44:28;;;;;;;3.05;1.40;;;;;;;;;;5051063;28;20033;-64
2023/04/28 10:47:06;;;;;;;3.38;1.55;;;;;;;;;;5044059;28;20187;-64
2023/04/28 10:49:53;;;;;;;2.95;1.60;;;;;;;;;;5051008;28;20036;-64
2023/04/28 10:52:37;;;;;;;1.80;1.60;;;;;;;;;;5051015;28;20143;-64
2023/04/28 10:55:35;;;;;;;1.48;1.38;;;;;;;;;;5050864;28;20105;-64
2023/04/28 10:58:26;;;;;;;2.05;1.52;;;;;;;;;;5050916;28;20106;-64
2023/04/28 11:00:52;;;;;;;2.88;1.75;;;;;;;;;;5045627;28;20040;-64
2023/04/28 11:03:41;;;;;;;3.42;1.55;;;;;;;;;;5050801;28;20025;-63
2023/04/28 11:06:31;;;;;;;1.97;1.53;;;;;;;;;;5050622;28;20171;-63
2023/04/28 11:09:18;;;;;;;1.60;1.50;;;;;;;;;;5050546;28;20266;-64
2023/04/28 11:11:53;;;;;;;2.75;1.48;;;;;;;;;;5050298;28;20405;-64
2023/04/28 11:14:19;;;;;;;1.60;1.50;;;;;;;;;;5032722;28;20481;-64
2023/04/28 11:17:00;;;;;;;1.80;1.50;;;;;;;;;;5050720;28;20033;-64
2023/04/28 11:19:41;;;;;;;2.13;1.38;;;;;;;;;;5050851;28;20102;-64
2023/04/28 11:22:14;;;;;;;1.35;1.25;;;;;;;;;;5050617;28;20034;-64
2023/04/28 11:24:40;;;;;;;2.75;1.50;;;;;;;;;;5032552;28;20029;-64
2023/04/28 11:27:05;;;;;;;2.33;1.50;;;;;;;;;;5050390;28;20036;-64
2023/04/28 11:29:42;;;;;;;1.40;1.30;;;;;;;;;;5050324;28;20033;-64
2023/04/28 11:32:09;;;;;;;1.65;1.50;;;;;;;;;;5050529;28;20037;-63
2023/04/28 11:34:35;;;;;;;2.28;1.70;;;;;;;;;;5050284;28;20111;-63
2023/04/28 11:37:02;;;;;;;1.58;1.48;;;;;;;;;;5050540;28;20029;-64
2023/04/28 11:39:33;;;;;;;1.60;1.50;;;;;;;;;;5050268;28;20039;-63
2023/04/28 11:42:08;;;;;;;1.70;1.58;;;;;;;;;;5050213;28;20108;-64
2023/04/28 11:44:33;;;;;;;3.00;1.60;;;;;;;;;;5050240;28;20087;-63
2023/04/28 11:47:01;;;;;;;1.77;1.65;;;;;;;;;;5054168;28;20029;-63
2023/04/28 11:49:34;;;;;;;1.83;1.60;;;;;;;;;;5054162;28;20119;-65
2023/04/28 11:52:07;;;;;;;1.50;1.40;;;;;;;;;;5054110;28;20028;-63
2023/04/28 11:54:33;;;;;;;1.45;1.27;;;;;;;;;;5054285;28;20044;-64
2023/04/28 11:57:03;;;;;;;1.52;1.40;;;;;;;;;;5054071;28;20021;-64
2023/04/28 11:59:35;;;;;;;1.63;1.52;;;;;;;;;;5053924;28;20036;-64
2023/04/28 12:02:06;;;;;;;1.60;1.50;;;;;;;;;;5053944;28;20485;-64
2023/04/28 12:04:40;;;;;;;2.20;1.48;;;;;;;;;;5053863;28;20036;-64
2023/04/28 12:07:17;;;;;;;1.50;1.40;;;;;;;;;;5054084;28;20033;-64
2023/04/28 12:09:48;;;;;;;1.67;1.50;;;;;;;;;;5053588;28;20021;-65
2023/04/28 12:12:26;;;;;;;1.95;1.55;;;;;;;;;;5053636;28;20117;-64
2023/04/28 12:14:58;;;;;;;1.52;1.40;;;;;;;;;;5053746;28;20048;-65
2023/04/28 12:17:28;;;;;;;1.33;1.20;;;;;;;;;;5053644;28;20033;-64
2023/04/28 12:19:54;;;;;;;;;;;;;;;;;;5054440;28;20451;-65
2023/04/28 12:22:20;;;;;;;;;;;;;;;;;;5053871;28;20273;-64
2023/04/28 12:24:45;;;;;;;;;;;;;;;;;;5054042;28;19917;-63
2023/04/28 12:27:17;;;;;;;;;;;;;;;;;;5054001;28;19912;-64
2023/04/28 12:29:44;;;;;;;;;;;;;;;;;;5053920;28;19912;-64
2023/04/28 12:32:11;;;;;;;;;;;;;;;;;;5054342;28;19920;-64
2023/04/28 12:34:38;;;;;;;;;;;;;;;;;;5053972;28;19912;-63
2023/04/28 12:37:04;;;;;;;;;;;;;;;;;;5053589;28;20371;-63
2023/04/28 12:39:33;;;;;;;;;;;;;;;;;;5053727;28;19919;-64
2023/04/28 12:41:59;;;;;;;;;;;;;;;;;;5053664;28;19917;-65
2023/04/28 12:44:26;;;;;;;;;;;;;;;;;;5035624;28;19917;-64
2023/04/28 12:46:52;;;;;;;;;;;;;;;;;;5053725;28;19916;-65
2023/04/28 12:49:17;;;;;;;;;;;;;;;;;;5053687;28;19913;-64
2023/04/28 12:51:43;;;;;;;;;;;;;;;;;;5053634;28;19921;-64
2023/04/28 12:54:09;;;;;;;;;;;;;;;;;;5053462;28;19917;-65
2023/04/28 12:56:35;;;;;;;;;;;;;;;;;;5053504;28;20201;-65
2023/04/28 12:59:03;;;;;;;;;;;;;;;;;;5053283;28;20407;-65
2023/04/28 13:01:29;;;;;;;;;;;;;;;;;;5053114;28;19913;-65
2023/04/28 13:03:54;;;;;;;;;;;;;;;;;;5053348;28;19916;-64
2023/04/28 13:06:20;;;;;;;;;;;;;;;;;;5035557;28;20348;-64
2023/04/28 13:08:45;;;;;;;;;;;;;;;;;;5035263;28;20331;-64
2023/04/28 13:11:11;;;;;;;;;;;;;;;;;;5052988;28;19923;-64
2023/04/28 13:13:36;;;;;;;;;;;;;;;;;;5053670;28;20178;-63
2023/04/28 13:16:03;;;;;;;;;;;;;;;;;;5052920;28;19970;-64
2023/04/28 13:18:29;;;;;;;;;;;;;;;;;;5053002;28;19913;-65
2023/04/28 13:20:54;;;;;;;;;;;;;;;;;;5053222;28;20334;-64
2023/04/28 13:23:20;;;;;;;;;;;;;;;;;;5053019;28;19917;-65
2023/04/28 13:25:45;;;;;;;;;;;;;;;;;;5052842;28;19919;-64
2023/04/28 13:28:12;;;;;;;;;;;;;;;;;;5053082;28;19917;-64
2023/04/28 13:30:37;;;;;;;;;;;;;;;;;;5052630;28;19913;-64
2023/04/28 13:33:03;;;;;;;;;;;;;;;;;;5052861;28;20019;-64
2023/04/28 13:35:28;;;;;;;;;;;;;;;;;;5052650;28;19966;-64
2023/04/28 13:38:00;;;;;;;;;;;;;;;;;;5052692;28;19955;-64
2023/04/28 13:40:26;;;;;;;;;;;;;;;;;;5052749;28;19917;-64
2023/04/28 13:42:51;;;;;;;;;;;;;;;;;;5058534;28;20394;-64
2023/04/28 13:45:16;;;;;;;;;;;;;;;;;;5059645;28;19981;-64
2023/04/28 13:47:42;;;;;;;;;;;;;;;;;;5052553;28;19917;-64
2023/04/28 13:50:07;;;;;;;;;;;;;;;;;;5052720;28;20372;-64
2023/04/28 13:52:33;;;;;;;;;;;;;;;;;;5052118;28;19917;-64
2023/04/28 13:54:58;;;;;;;;;;;;;;;;;;5052549;28;19919;-65
2023/04/28 13:57:24;;;;;;;;;;;;;;;;;;5052456;28;19920;-64
2023/04/28 13:59:49;;;;;;;;;;;;;;;;;;5052155;28;19916;-64
2023/04/28 14:02:14;;;;;;;;;;;;;;;;;;5052357;28;19912;-64
2023/04/28 14:04:46;;;;;;;;;;;;;;;;;;5034254;28;20295;-64
2023/04/28 14:07:12;;;;;;;;;;;;;;;;;;5051903;28;19940;-64
2023/04/28 14:09:37;;;;;;;;;;;;;;;;;;5051398;28;19913;-64
2023/04/28 14:12:03;;;;;;;;;;;;;;;;;;5052000;28;19921;-64
2023/04/28 14:14:28;;;;;;;;;;;;;;;;;;5059042;28;19920;-63
2023/04/28 14:16:54;;;;;;;;;;;;;;;;;;5065728;28;20261;-64
2023/04/28 14:19:19;;;;;;;;;;;;;;;;;;5061814;28;19912;-64
2023/04/28 14:21:45;;;;;;;;;;;;;;;;;;5063232;28;20343;-64
2023/04/28 14:24:10;;;;;;;;;;;;;;;;;;5062770;28;19928;-64
2023/04/28 14:26:36;;;;;;;;;;;;;;;;;;5060209;28;19939;-63
2023/04/28 14:29:01;;;;;;;;;;;;;;;;;;5051798;28;20011;-64
2023/04/28 14:31:27;;;;;;;;;;;;;;;;;;5051649;28;20387;-64
2023/04/28 14:33:52;;;;;;;;;;;;;;;;;;5052578;28;19916;-64
2023/04/28 14:36:18;;;;;;;;;;;;;;;;;;5051874;28;20296;-64
2023/04/28 14:38:43;;;;;;;;;;;;;;;;;;5052009;28;20376;-65
2023/04/28 14:41:10;;;;;;;;;;;;;;;;;;5051585;28;20262;-64
2023/04/28 14:43:36;;;;;;;;;;;;;;;;;;5051721;28;19948;-64
2023/04/28 14:46:02;;;;;;;;;;;;;;;;;;5051724;28;19923;-64
2023/04/28 14:48:28;;;;;;;;;;;;;;;;;;5051436;28;20295;-65
2023/04/28 14:50:53;;;;;;;;;;;;;;;;;;5051631;28;19920;-64
2023/04/28 14:53:19;;;;;;;;;;;;;;;;;;5051278;28;19913;-64
2023/04/28 14:55:44;;;;;;;;;;;;;;;;;;5051734;28;19913;-65
2023/04/28 14:58:10;;;;;;;;;;;;;;;;;;5051189;28;19916;-65
2023/04/28 15:00:35;;;;;;;;;;;;;;;;;;5033443;28;19916;-64
2023/04/28 15:03:00;;;;;;;;;;;;;;;;;;5051014;28;19913;-65
2023/04/28 15:05:26;;;;;;;;;;;;;;;;;;5051190;28;19958;-65
2023/04/28 15:07:51;;;;;;;;;;;;;;;;;;5051200;28;19943;-64
2023/04/28 15:10:17;;;;;;;;;;;;;;;;;;5051099;28;19921;-65
2023/04/28 15:12:43;;;;;;;;;;;;;;;;;;5051367;28;19919;-65
2023/04/28 15:15:08;;;;;;;;;;;;;;;;;;5051380;28;20649;-65
2023/04/28 15:17:34;;;;;;;;;;;;;;;;;;5051183;28;20320;-64
2023/04/28 15:19:59;;;;;;;;;;;;;;;;;;5051971;28;20740;-64
2023/04/28 15:22:25;;;;;;;;;;;;;;;;;;5055235;28;19927;-63
2023/04/28 15:24:51;;;;;;;;;;;;;;;;;;5055140;28;20000;-64
2023/04/28 15:27:16;;;;;;;;;;;;;;;;;;5055351;28;19924;-63
2023/04/28 15:29:42;;;;;;;;;;;;;;;;;;5055175;28;19985;-63
2023/04/28 15:32:08;;;;;;;;;;;;;;;;;;5036933;28;19976;-64
2023/04/28 15:34:33;;;;;;;;;;;;;;;;;;5055268;28;19921;-64
2023/04/28 15:37:00;;;;;;;;;;;;;;;;;;5054888;28;19912;-63
2023/04/28 15:39:27;;;;;;;;;;;;;;;;;;5055300;28;19912;-64
2023/04/28 15:41:52;;;;;;;;;;;;;;;;;;5054833;28;19917;-64
2023/04/28 15:44:18;;;;;;;;;;;;;;;;;;5055193;28;19919;-64
2023/04/28 15:46:43;;;;;;;;;;;;;;;;;;5054679;28;19962;-65
2023/04/28 15:49:09;;;;;;;;;;;;;;;;;;5055024;28;20003;-65
2023/04/28 15:51:35;;;;;;;;;;;;;;;;;;5054704;28;20042;-64
2023/04/28 15:54:00;;;;;;;;;;;;;;;;;;5054570;28;20577;-64
2023/04/28 15:56:27;;;;;;;;;;;;;;;;;;5054623;28;19912;-64
2023/04/28 15:58:52;;;;;;;;;;;;;;;;;;5054484;28;19956;-63
2023/04/28 16:01:17;;;;;;;;;;;;;;;;;;5054453;28;19963;-63
2023/04/28 16:03:43;;;;;;;;;;;;;;;;;;5054575;28;20000;-64
2023/04/28 16:06:08;;;;;;;;;;;;;;;;;;5054729;28;20372;-64
2023/04/28 16:08:34;;;;;;;;;;;;;;;;;;5054708;28;19921;-65
2023/04/28 16:11:00;;;;;;;;;;;;;;;;;;5054300;28;20355;-65
2023/04/28 16:13:25;;;;;;;;;;;;;;;;;;5054129;28;19913;-64
2023/04/28 16:15:51;;;;;;;;;;;;;;;;;;5054539;28;19923;-65
2023/04/28 16:18:16;;;;;;;;;;;;;;;;;;5054269;28;20481;-64
2023/04/28 16:20:42;;;;;;;;;;;;;;;;;;5054204;28;19917;-64
2023/04/28 16:23:10;;;;;;;;;;;;;;;;;;5054328;28;19942;-64
2023/04/28 16:25:35;;;;;;;;;;;;;;;;;;5054453;28;19912;-65
2023/04/28 16:28:01;;;;;;;;;;;;;;;;;;5080265;28;20494;-65
2023/04/28 16:30:26;;;;;;;;;;;;;;;;;;5094143;28;19916;-65
2023/04/28 16:32:52;;;;;;;;;;;;;;;;;;5094258;28;20375;-64
2023/04/28 16:35:17;;;;;;;;;;;;;;;;;;5076315;28;19912;-64
2023/04/28 16:37:43;;;;;;;;;;;;;;;;;;5094096;28;20415;-65
2023/04/28 16:40:09;;;;;;;;;;;;;;;;;;5094397;28;19912;-64
2023/04/28 16:42:35;;;;;;;;;;;;;;;;;;5077929;28;19921;-64
2023/04/28 16:45:00;;;;;;;;;;;;;;;;;;5053816;28;19913;-65
2023/04/28 16:47:27;;;;;;;;;;;;;;;;;;5053531;28;19963;-63
2023/04/28 16:49:52;;;;;;;;;;;;;;;;;;5053882;28;20388;-63
2023/04/28 16:52:18;;;;;;;;;;;;;;;;;;5053608;28;19917;-63
2023/04/28 16:54:44;;;;;;;;;;;;;;;;;;5053591;28;19921;-64
2023/04/28 16:57:09;;;;;;;;;;;;;;;;;;5053663;28;20614;-66
2023/04/28 16:59:36;;;;;;;;;;;;;;;;;;5053483;28;19962;-65
2023/04/28 17:02:02;;;;;;;;;;;;;;;;;;5068114;28;20352;-64
2023/04/28 17:04:28;;;;;;;;;;;;;;;;;;5073413;28;20003;-64
2023/04/28 17:06:53;;;;;;;;;;;;;;;;;;5073268;28;20011;-64
2023/04/28 17:09:19;;;;;;;;;;;;;;;;;;5073244;28;19959;-65
2023/04/28 17:11:46;;;;;;;;;;;;;;;;;;5072974;28;19917;-65
2023/04/28 17:14:11;;;;;;;;;;;;;;;;;;5073104;28;19920;-65
2023/04/28 17:16:37;;;;;;;;;;;;;;;;;;5073033;28;19969;-65
2023/04/28 17:19:02;;;;;;;;;;;;;;;;;;5072995;28;19917;-65